sensor_id;sensor_type;location;lat;lon;timestamp;P1;durP1;ratioP1;P2;durP2;ratioP2
73678;SDS011;61978;52.742;16.962;2022-12-29T00:00:22;11.88;;;6.58;;
73678;SDS011;61978;52.742;16.962;2022-12-29T00:02:49;10.75;;;6.42;;
73678;SDS011;61978;52.742;16.962;2022-12-29T00:05:16;10.98;;;6.83;;
73678;SDS011;61978;52.742;16.962;2022-12-29T00:07:43;12.20;;;6.65;;
73678;SDS011;61978;52.742;16.962;2022-12-29T00:10:12;9.95;;;6.80;;
73678;SDS011;61978;52.742;16.962;2022-12-29T00:12:39;10.30;;;6.45;;
73678;SDS011;61978;52.742;16.962;2022-12-29T00:15:25;10.35;;;6.25;;
73678;SDS011;61978;52.742;16.962;2022-12-29T00:18:06;12.75;;;6.83;;
73678;SDS011;61978;52.742;16.962;2022-12-29T00:20:34;10.30;;;5.83;;
73678;SDS011;61978;52.742;16.962;2022-12-29T00:23:22;10.15;;;6.12;;
73678;SDS011;61978;52.742;16.962;2022-12-29T00:26:13;10.40;;;5.35;;
73678;SDS011;61978;52.742;16.962;2022-12-29T00:28:57;8.90;;;5.00;;
73678;SDS011;61978;52.742;16.962;2022-12-29T00:31:43;8.70;;;4.92;;
73678;SDS011;61978;52.742;16.962;2022-12-29T00:34:29;10.08;;;4.65;;
73678;SDS011;61978;52.742;16.962;2022-12-29T00:37:15;8.08;;;4.37;;
73678;SDS011;61978;52.742;16.962;2022-12-29T00:39:43;9.50;;;4.95;;
73678;SDS011;61978;52.742;16.962;2022-12-29T00:42:28;9.10;;;4.42;;
73678;SDS011;61978;52.742;16.962;2022-12-29T00:45:15;7.58;;;4.20;;
73678;SDS011;61978;52.742;16.962;2022-12-29T00:47:42;10.65;;;4.47;;
73678;SDS011;61978;52.742;16.962;2022-12-29T00:50:09;8.05;;;4.62;;
73678;SDS011;61978;52.742;16.962;2022-12-29T00:52:38;6.15;;;4.03;;
73678;SDS011;61978;52.742;16.962;2022-12-29T00:55:07;5.12;;;3.70;;
73678;SDS011;61978;52.742;16.962;2022-12-29T00:57:34;7.95;;;4.05;;
73678;SDS011;61978;52.742;16.962;2022-12-29T01:00:02;7.37;;;3.92;;
73678;SDS011;61978;52.742;16.962;2022-12-29T01:02:29;9.43;;;4.58;;
73678;SDS011;61978;52.742;16.962;2022-12-29T01:04:57;5.85;;;3.80;;
73678;SDS011;61978;52.742;16.962;2022-12-29T01:07:24;10.05;;;4.45;;
73678;SDS011;61978;52.742;16.962;2022-12-29T01:09:51;6.78;;;4.08;;
73678;SDS011;61978;52.742;16.962;2022-12-29T01:12:37;9.50;;;4.58;;
73678;SDS011;61978;52.742;16.962;2022-12-29T01:15:09;9.68;;;4.47;;
73678;SDS011;61978;52.742;16.962;2022-12-29T01:17:40;6.78;;;4.20;;
73678;SDS011;61978;52.742;16.962;2022-12-29T01:20:09;6.42;;;4.45;;
73678;SDS011;61978;52.742;16.962;2022-12-29T01:22:38;8.10;;;4.62;;
73678;SDS011;61978;52.742;16.962;2022-12-29T01:25:08;7.70;;;3.80;;
73678;SDS011;61978;52.742;16.962;2022-12-29T01:27:37;6.60;;;3.77;;
73678;SDS011;61978;52.742;16.962;2022-12-29T01:30:06;6.08;;;4.22;;
73678;SDS011;61978;52.742;16.962;2022-12-29T01:32:35;7.20;;;4.17;;
73678;SDS011;61978;52.742;16.962;2022-12-29T01:35:02;7.40;;;4.15;;
73678;SDS011;61978;52.742;16.962;2022-12-29T01:37:32;7.03;;;4.53;;
73678;SDS011;61978;52.742;16.962;2022-12-29T01:39:59;7.15;;;4.00;;
73678;SDS011;61978;52.742;16.962;2022-12-29T01:42:27;9.18;;;4.40;;
73678;SDS011;61978;52.742;16.962;2022-12-29T01:44:55;6.58;;;4.67;;
73678;SDS011;61978;52.742;16.962;2022-12-29T01:47:37;6.97;;;3.80;;
73678;SDS011;61978;52.742;16.962;2022-12-29T01:50:24;6.67;;;3.50;;
73678;SDS011;61978;52.742;16.962;2022-12-29T01:53:04;7.65;;;3.27;;
73678;SDS011;61978;52.742;16.962;2022-12-29T01:55:43;6.28;;;4.17;;
73678;SDS011;61978;52.742;16.962;2022-12-29T01:58:09;5.95;;;3.77;;
73678;SDS011;61978;52.742;16.962;2022-12-29T02:00:40;7.47;;;3.50;;
73678;SDS011;61978;52.742;16.962;2022-12-29T02:03:08;7.40;;;3.95;;
73678;SDS011;61978;52.742;16.962;2022-12-29T02:08:11;6.33;;;3.85;;
73678;SDS011;61978;52.742;16.962;2022-12-29T02:10:40;5.30;;;3.50;;
73678;SDS011;61978;52.742;16.962;2022-12-29T02:13:10;6.83;;;4.00;;
73678;SDS011;61978;52.742;16.962;2022-12-29T02:35:11;7.42;;;4.05;;
73678;SDS011;61978;52.742;16.962;2022-12-29T02:45:32;11.10;;;5.35;;
73678;SDS011;61978;52.742;16.962;2022-12-29T02:48:15;11.40;;;4.97;;
73678;SDS011;61978;52.742;16.962;2022-12-29T02:53:27;7.83;;;4.45;;
73678;SDS011;61978;52.742;16.962;2022-12-29T02:56:18;8.80;;;4.10;;
73678;SDS011;61978;52.742;16.962;2022-12-29T02:58:45;7.95;;;4.42;;
73678;SDS011;61978;52.742;16.962;2022-12-29T03:01:31;6.55;;;3.92;;
73678;SDS011;61978;52.742;16.962;2022-12-29T03:04:10;8.13;;;3.80;;
73678;SDS011;61978;52.742;16.962;2022-12-29T03:06:46;8.88;;;4.00;;
73678;SDS011;61978;52.742;16.962;2022-12-29T03:15:03;7.40;;;3.52;;
73678;SDS011;61978;52.742;16.962;2022-12-29T03:18:05;7.00;;;4.03;;
73678;SDS011;61978;52.742;16.962;2022-12-29T03:20:32;7.00;;;3.50;;
73678;SDS011;61978;52.742;16.962;2022-12-29T03:23:07;8.23;;;3.30;;
73678;SDS011;61978;52.742;16.962;2022-12-29T03:25:42;7.92;;;3.45;;
73678;SDS011;61978;52.742;16.962;2022-12-29T03:28:20;4.65;;;3.52;;
73678;SDS011;61978;52.742;16.962;2022-12-29T03:30:50;7.12;;;4.05;;
73678;SDS011;61978;52.742;16.962;2022-12-29T03:33:21;6.15;;;3.05;;
73678;SDS011;61978;52.742;16.962;2022-12-29T03:35:52;5.05;;;3.50;;
73678;SDS011;61978;52.742;16.962;2022-12-29T03:38:25;8.63;;;3.95;;
73678;SDS011;61978;52.742;16.962;2022-12-29T03:40:57;6.58;;;3.35;;
73678;SDS011;61978;52.742;16.962;2022-12-29T03:43:29;4.95;;;3.27;;
73678;SDS011;61978;52.742;16.962;2022-12-29T03:45:56;10.45;;;3.25;;
73678;SDS011;61978;52.742;16.962;2022-12-29T03:48:24;8.45;;;3.65;;
73678;SDS011;61978;52.742;16.962;2022-12-29T03:50:52;4.58;;;3.10;;
73678;SDS011;61978;52.742;16.962;2022-12-29T03:53:20;6.00;;;3.22;;
73678;SDS011;61978;52.742;16.962;2022-12-29T03:55:48;6.70;;;3.15;;
73678;SDS011;61978;52.742;16.962;2022-12-29T03:58:15;4.50;;;2.77;;
73678;SDS011;61978;52.742;16.962;2022-12-29T04:00:53;6.15;;;3.47;;
73678;SDS011;61978;52.742;16.962;2022-12-29T04:03:22;4.17;;;2.67;;
73678;SDS011;61978;52.742;16.962;2022-12-29T04:05:49;8.40;;;2.85;;
73678;SDS011;61978;52.742;16.962;2022-12-29T04:08:17;3.77;;;2.98;;
73678;SDS011;61978;52.742;16.962;2022-12-29T04:10:43;3.75;;;2.98;;
73678;SDS011;61978;52.742;16.962;2022-12-29T04:13:12;6.47;;;3.02;;
73678;SDS011;61978;52.742;16.962;2022-12-29T04:15:39;7.15;;;3.47;;
73678;SDS011;61978;52.742;16.962;2022-12-29T04:18:07;5.53;;;2.70;;
73678;SDS011;61978;52.742;16.962;2022-12-29T04:20:34;4.25;;;2.75;;
73678;SDS011;61978;52.742;16.962;2022-12-29T04:23:19;6.53;;;2.87;;
73678;SDS011;61978;52.742;16.962;2022-12-29T04:25:46;8.48;;;3.50;;
73678;SDS011;61978;52.742;16.962;2022-12-29T04:28:15;4.55;;;3.10;;
73678;SDS011;61978;52.742;16.962;2022-12-29T04:30:47;3.37;;;2.20;;
73678;SDS011;61978;52.742;16.962;2022-12-29T04:33:24;4.97;;;2.90;;
73678;SDS011;61978;52.742;16.962;2022-12-29T04:35:52;10.48;;;3.47;;
73678;SDS011;61978;52.742;16.962;2022-12-29T04:38:21;5.55;;;3.00;;
73678;SDS011;61978;52.742;16.962;2022-12-29T04:40:49;9.23;;;4.10;;
73678;SDS011;61978;52.742;16.962;2022-12-29T04:43:19;8.70;;;3.90;;
73678;SDS011;61978;52.742;16.962;2022-12-29T04:46:01;5.20;;;3.65;;
73678;SDS011;61978;52.742;16.962;2022-12-29T04:48:30;7.25;;;3.92;;
73678;SDS011;61978;52.742;16.962;2022-12-29T04:50:58;5.58;;;3.62;;
73678;SDS011;61978;52.742;16.962;2022-12-29T04:53:28;5.25;;;3.40;;
73678;SDS011;61978;52.742;16.962;2022-12-29T04:55:57;4.17;;;2.77;;
73678;SDS011;61978;52.742;16.962;2022-12-29T04:58:26;5.92;;;3.12;;
73678;SDS011;61978;52.742;16.962;2022-12-29T05:00:54;5.90;;;3.08;;
73678;SDS011;61978;52.742;16.962;2022-12-29T05:03:23;6.80;;;3.67;;
73678;SDS011;61978;52.742;16.962;2022-12-29T05:05:52;5.20;;;2.95;;
73678;SDS011;61978;52.742;16.962;2022-12-29T05:08:20;3.70;;;2.90;;
73678;SDS011;61978;52.742;16.962;2022-12-29T05:10:51;4.85;;;3.00;;
73678;SDS011;61978;52.742;16.962;2022-12-29T05:13:20;4.25;;;3.12;;
73678;SDS011;61978;52.742;16.962;2022-12-29T05:15:53;4.78;;;3.10;;
73678;SDS011;61978;52.742;16.962;2022-12-29T05:18:18;4.92;;;3.00;;
73678;SDS011;61978;52.742;16.962;2022-12-29T05:20:46;4.45;;;2.95;;
73678;SDS011;61978;52.742;16.962;2022-12-29T05:23:13;4.62;;;3.02;;
73678;SDS011;61978;52.742;16.962;2022-12-29T05:25:42;3.58;;;2.70;;
73678;SDS011;61978;52.742;16.962;2022-12-29T05:28:19;4.30;;;2.95;;
73678;SDS011;61978;52.742;16.962;2022-12-29T05:30:51;4.55;;;3.10;;
73678;SDS011;61978;52.742;16.962;2022-12-29T05:33:19;5.03;;;2.75;;
73678;SDS011;61978;52.742;16.962;2022-12-29T05:35:49;5.60;;;2.90;;
73678;SDS011;61978;52.742;16.962;2022-12-29T05:38:17;7.50;;;2.77;;
73678;SDS011;61978;52.742;16.962;2022-12-29T05:40:44;4.33;;;2.83;;
73678;SDS011;61978;52.742;16.962;2022-12-29T05:43:15;3.98;;;2.92;;
73678;SDS011;61978;52.742;16.962;2022-12-29T05:45:44;6.50;;;3.35;;
73678;SDS011;61978;52.742;16.962;2022-12-29T05:48:27;4.20;;;2.62;;
73678;SDS011;61978;52.742;16.962;2022-12-29T05:50:55;5.40;;;2.87;;
73678;SDS011;61978;52.742;16.962;2022-12-29T05:53:24;3.98;;;2.55;;
73678;SDS011;61978;52.742;16.962;2022-12-29T05:55:50;5.58;;;2.95;;
73678;SDS011;61978;52.742;16.962;2022-12-29T05:58:19;5.83;;;3.30;;
73678;SDS011;61978;52.742;16.962;2022-12-29T06:00:46;5.85;;;2.72;;
73678;SDS011;61978;52.742;16.962;2022-12-29T06:03:13;5.47;;;3.33;;
73678;SDS011;61978;52.742;16.962;2022-12-29T06:05:40;7.55;;;3.45;;
73678;SDS011;61978;52.742;16.962;2022-12-29T06:08:07;5.22;;;2.87;;
73678;SDS011;61978;52.742;16.962;2022-12-29T06:10:34;4.62;;;3.05;;
73678;SDS011;61978;52.742;16.962;2022-12-29T06:13:02;5.60;;;2.62;;
73678;SDS011;61978;52.742;16.962;2022-12-29T06:15:31;5.17;;;3.15;;
73678;SDS011;61978;52.742;16.962;2022-12-29T06:17:59;4.87;;;3.05;;
73678;SDS011;61978;52.742;16.962;2022-12-29T06:20:26;4.47;;;2.80;;
73678;SDS011;61978;52.742;16.962;2022-12-29T06:22:53;5.35;;;2.75;;
73678;SDS011;61978;52.742;16.962;2022-12-29T06:25:22;6.17;;;3.10;;
73678;SDS011;61978;52.742;16.962;2022-12-29T06:27:48;4.03;;;2.90;;
73678;SDS011;61978;52.742;16.962;2022-12-29T06:30:15;9.20;;;4.78;;
73678;SDS011;61978;52.742;16.962;2022-12-29T06:32:43;14.15;;;10.82;;
73678;SDS011;61978;52.742;16.962;2022-12-29T06:35:11;6.85;;;3.30;;
73678;SDS011;61978;52.742;16.962;2022-12-29T06:37:39;4.87;;;3.58;;
73678;SDS011;61978;52.742;16.962;2022-12-29T06:40:07;5.50;;;2.45;;
73678;SDS011;61978;52.742;16.962;2022-12-29T06:42:53;5.67;;;3.00;;
73678;SDS011;61978;52.742;16.962;2022-12-29T06:45:27;4.58;;;3.10;;
73678;SDS011;61978;52.742;16.962;2022-12-29T06:47:54;11.20;;;8.23;;
73678;SDS011;61978;52.742;16.962;2022-12-29T06:50:20;19.98;;;11.50;;
73678;SDS011;61978;52.742;16.962;2022-12-29T06:52:47;25.17;;;11.68;;
73678;SDS011;61978;52.742;16.962;2022-12-29T06:55:14;19.27;;;12.43;;
73678;SDS011;61978;52.742;16.962;2022-12-29T06:57:41;15.10;;;8.73;;
73678;SDS011;61978;52.742;16.962;2022-12-29T07:00:09;19.52;;;11.38;;
73678;SDS011;61978;52.742;16.962;2022-12-29T07:02:36;63.15;;;25.10;;
73678;SDS011;61978;52.742;16.962;2022-12-29T07:05:03;29.65;;;13.80;;
73678;SDS011;61978;52.742;16.962;2022-12-29T07:07:30;88.35;;;42.62;;
73678;SDS011;61978;52.742;16.962;2022-12-29T07:09:58;82.88;;;37.63;;
73678;SDS011;61978;52.742;16.962;2022-12-29T07:12:25;32.55;;;16.02;;
73678;SDS011;61978;52.742;16.962;2022-12-29T07:14:53;71.12;;;34.00;;
73678;SDS011;61978;52.742;16.962;2022-12-29T07:17:20;41.58;;;19.30;;
73678;SDS011;61978;52.742;16.962;2022-12-29T07:19:47;31.95;;;14.78;;
73678;SDS011;61978;52.742;16.962;2022-12-29T07:22:15;63.63;;;26.17;;
73678;SDS011;61978;52.742;16.962;2022-12-29T07:24:42;97.12;;;38.05;;
73678;SDS011;61978;52.742;16.962;2022-12-29T07:27:10;70.30;;;24.98;;
73678;SDS011;61978;52.742;16.962;2022-12-29T07:29:38;67.85;;;25.48;;
73678;SDS011;61978;52.742;16.962;2022-12-29T07:32:06;150.42;;;47.55;;
73678;SDS011;61978;52.742;16.962;2022-12-29T07:34:34;109.97;;;36.63;;
73678;SDS011;61978;52.742;16.962;2022-12-29T07:37:00;100.12;;;34.45;;
73678;SDS011;61978;52.742;16.962;2022-12-29T07:39:28;41.13;;;15.60;;
73678;SDS011;61978;52.742;16.962;2022-12-29T07:41:55;102.47;;;35.55;;
73678;SDS011;61978;52.742;16.962;2022-12-29T07:44:25;147.00;;;53.98;;
73678;SDS011;61978;52.742;16.962;2022-12-29T07:46:57;150.95;;;52.88;;
73678;SDS011;61978;52.742;16.962;2022-12-29T07:49:25;106.95;;;37.30;;
73678;SDS011;61978;52.742;16.962;2022-12-29T07:51:53;95.47;;;33.48;;
73678;SDS011;61978;52.742;16.962;2022-12-29T07:54:22;61.77;;;23.30;;
73678;SDS011;61978;52.742;16.962;2022-12-29T07:56:50;25.90;;;9.35;;
73678;SDS011;61978;52.742;16.962;2022-12-29T07:59:18;115.08;;;38.23;;
73678;SDS011;61978;52.742;16.962;2022-12-29T08:01:46;35.38;;;14.07;;
73678;SDS011;61978;52.742;16.962;2022-12-29T08:04:13;135.18;;;45.48;;
73678;SDS011;61978;52.742;16.962;2022-12-29T08:06:41;101.15;;;35.17;;
73678;SDS011;61978;52.742;16.962;2022-12-29T08:09:09;145.28;;;47.75;;
73678;SDS011;61978;52.742;16.962;2022-12-29T08:11:36;40.70;;;15.58;;
73678;SDS011;61978;52.742;16.962;2022-12-29T08:14:04;104.53;;;33.90;;
73678;SDS011;61978;52.742;16.962;2022-12-29T08:16:31;80.15;;;27.13;;
73678;SDS011;61978;52.742;16.962;2022-12-29T08:18:58;100.25;;;34.65;;
73678;SDS011;61978;52.742;16.962;2022-12-29T08:21:26;116.65;;;40.12;;
73678;SDS011;61978;52.742;16.962;2022-12-29T08:23:54;125.40;;;43.52;;
73678;SDS011;61978;52.742;16.962;2022-12-29T08:26:22;84.65;;;29.85;;
73678;SDS011;61978;52.742;16.962;2022-12-29T08:28:49;93.05;;;29.40;;
73678;SDS011;61978;52.742;16.962;2022-12-29T08:31:17;63.75;;;22.42;;
73678;SDS011;61978;52.742;16.962;2022-12-29T08:33:45;155.40;;;47.78;;
73678;SDS011;61978;52.742;16.962;2022-12-29T08:36:12;186.03;;;52.58;;
73678;SDS011;61978;52.742;16.962;2022-12-29T08:38:40;98.33;;;30.32;;
73678;SDS011;61978;52.742;16.962;2022-12-29T08:41:06;93.45;;;29.85;;
73678;SDS011;61978;52.742;16.962;2022-12-29T08:43:34;114.77;;;32.73;;
73678;SDS011;61978;52.742;16.962;2022-12-29T08:46:02;58.92;;;18.37;;
73678;SDS011;61978;52.742;16.962;2022-12-29T08:48:30;90.12;;;31.35;;
73678;SDS011;61978;52.742;16.962;2022-12-29T08:50:57;25.15;;;9.33;;
73678;SDS011;61978;52.742;16.962;2022-12-29T08:53:24;141.30;;;41.85;;
73678;SDS011;61978;52.742;16.962;2022-12-29T08:55:56;102.82;;;34.95;;
73678;SDS011;61978;52.742;16.962;2022-12-29T08:58:25;93.85;;;34.50;;
73678;SDS011;61978;52.742;16.962;2022-12-29T09:00:54;81.37;;;32.03;;
73678;SDS011;61978;52.742;16.962;2022-12-29T09:03:22;19.40;;;7.37;;
73678;SDS011;61978;52.742;16.962;2022-12-29T09:05:50;18.55;;;7.50;;
73678;SDS011;61978;52.742;16.962;2022-12-29T09:08:19;19.23;;;9.10;;
73678;SDS011;61978;52.742;16.962;2022-12-29T09:10:48;28.10;;;16.12;;
73678;SDS011;61978;52.742;16.962;2022-12-29T09:13:17;22.75;;;12.00;;
73678;SDS011;61978;52.742;16.962;2022-12-29T09:15:46;17.35;;;8.85;;
73678;SDS011;61978;52.742;16.962;2022-12-29T09:18:13;20.32;;;9.43;;
73678;SDS011;61978;52.742;16.962;2022-12-29T09:20:41;22.22;;;10.48;;
73678;SDS011;61978;52.742;16.962;2022-12-29T09:23:08;18.90;;;10.38;;
73678;SDS011;61978;52.742;16.962;2022-12-29T09:25:35;6.33;;;4.30;;
73678;SDS011;61978;52.742;16.962;2022-12-29T09:28:03;10.58;;;6.37;;
73678;SDS011;61978;52.742;16.962;2022-12-29T09:30:32;5.42;;;4.25;;
73678;SDS011;61978;52.742;16.962;2022-12-29T09:33:01;13.30;;;7.97;;
73678;SDS011;61978;52.742;16.962;2022-12-29T09:35:30;14.10;;;7.90;;
73678;SDS011;61978;52.742;16.962;2022-12-29T09:37:58;9.95;;;5.90;;
73678;SDS011;61978;52.742;16.962;2022-12-29T09:40:28;7.17;;;3.85;;
73678;SDS011;61978;52.742;16.962;2022-12-29T09:43:05;5.55;;;3.50;;
73678;SDS011;61978;52.742;16.962;2022-12-29T09:45:43;6.28;;;3.42;;
73678;SDS011;61978;52.742;16.962;2022-12-29T09:48:17;8.65;;;3.80;;
73678;SDS011;61978;52.742;16.962;2022-12-29T09:50:51;6.40;;;3.70;;
73678;SDS011;61978;52.742;16.962;2022-12-29T09:53:35;6.42;;;5.05;;
73678;SDS011;61978;52.742;16.962;2022-12-29T09:56:01;8.58;;;4.60;;
73678;SDS011;61978;52.742;16.962;2022-12-29T10:04:03;4.47;;;2.80;;
73678;SDS011;61978;52.742;16.962;2022-12-29T10:06:33;7.37;;;3.00;;
73678;SDS011;61978;52.742;16.962;2022-12-29T10:23:35;4.70;;;3.05;;
73678;SDS011;61978;52.742;16.962;2022-12-29T10:26:03;7.00;;;3.00;;
73678;SDS011;61978;52.742;16.962;2022-12-29T10:28:35;5.50;;;2.80;;
73678;SDS011;61978;52.742;16.962;2022-12-29T10:31:09;5.03;;;2.90;;
73678;SDS011;61978;52.742;16.962;2022-12-29T10:33:41;5.62;;;2.95;;
73678;SDS011;61978;52.742;16.962;2022-12-29T10:36:27;4.62;;;2.90;;
73678;SDS011;61978;52.742;16.962;2022-12-29T10:38:54;5.67;;;2.75;;
73678;SDS011;61978;52.742;16.962;2022-12-29T10:41:28;4.75;;;2.47;;
73678;SDS011;61978;52.742;16.962;2022-12-29T10:44:07;4.67;;;2.60;;
73678;SDS011;61978;52.742;16.962;2022-12-29T10:46:35;5.85;;;3.10;;
73678;SDS011;61978;52.742;16.962;2022-12-29T10:49:06;4.78;;;2.65;;
73678;SDS011;61978;52.742;16.962;2022-12-29T10:51:38;4.58;;;3.12;;
73678;SDS011;61978;52.742;16.962;2022-12-29T10:56:56;6.80;;;3.98;;
73678;SDS011;61978;52.742;16.962;2022-12-29T10:59:29;6.22;;;4.15;;
73678;SDS011;61978;52.742;16.962;2022-12-29T11:07:12;5.53;;;2.90;;
73678;SDS011;61978;52.742;16.962;2022-12-29T11:09:44;5.97;;;3.12;;
73678;SDS011;61978;52.742;16.962;2022-12-29T11:12:26;3.70;;;2.77;;
73678;SDS011;61978;52.742;16.962;2022-12-29T11:17:52;5.47;;;3.05;;
73678;SDS011;61978;52.742;16.962;2022-12-29T11:20:37;5.83;;;3.30;;
73678;SDS011;61978;52.742;16.962;2022-12-29T11:26:13;6.60;;;2.62;;
73678;SDS011;61978;52.742;16.962;2022-12-29T11:28:43;5.67;;;2.65;;
73678;SDS011;61978;52.742;16.962;2022-12-29T11:31:17;3.95;;;2.25;;
73678;SDS011;61978;52.742;16.962;2022-12-29T11:33:45;6.22;;;2.55;;
73678;SDS011;61978;52.742;16.962;2022-12-29T11:36:19;8.48;;;2.83;;
73678;SDS011;61978;52.742;16.962;2022-12-29T11:38:51;9.10;;;3.05;;
73678;SDS011;61978;52.742;16.962;2022-12-29T11:41:27;6.17;;;2.98;;
73678;SDS011;61978;52.742;16.962;2022-12-29T11:44:00;4.55;;;2.90;;
73678;SDS011;61978;52.742;16.962;2022-12-29T11:46:34;4.97;;;3.10;;
73678;SDS011;61978;52.742;16.962;2022-12-29T11:49:04;2.55;;;2.12;;
73678;SDS011;61978;52.742;16.962;2022-12-29T11:51:45;3.15;;;2.12;;
73678;SDS011;61978;52.742;16.962;2022-12-29T11:54:18;3.98;;;2.42;;
73678;SDS011;61978;52.742;16.962;2022-12-29T11:56:47;4.80;;;2.77;;
73678;SDS011;61978;52.742;16.962;2022-12-29T12:02:11;3.60;;;2.27;;
73678;SDS011;61978;52.742;16.962;2022-12-29T12:04:36;4.22;;;2.75;;
73678;SDS011;61978;52.742;16.962;2022-12-29T12:07:11;3.80;;;2.60;;
73678;SDS011;61978;52.742;16.962;2022-12-29T12:12:15;4.15;;;2.58;;
73678;SDS011;61978;52.742;16.962;2022-12-29T12:14:51;3.92;;;2.45;;
73678;SDS011;61978;52.742;16.962;2022-12-29T12:17:41;7.03;;;2.67;;
73678;SDS011;61978;52.742;16.962;2022-12-29T12:20:16;4.42;;;2.52;;
73678;SDS011;61978;52.742;16.962;2022-12-29T12:26:09;5.25;;;2.80;;
73678;SDS011;61978;52.742;16.962;2022-12-29T12:28:26;5.03;;;2.00;;
73678;SDS011;61978;52.742;16.962;2022-12-29T12:31:06;2.80;;;2.02;;
73678;SDS011;61978;52.742;16.962;2022-12-29T12:33:42;3.62;;;1.95;;
73678;SDS011;61978;52.742;16.962;2022-12-29T12:38:58;4.40;;;2.00;;
73678;SDS011;61978;52.742;16.962;2022-12-29T12:41:49;6.03;;;1.80;;
73678;SDS011;61978;52.742;16.962;2022-12-29T12:44:40;3.12;;;1.72;;
73678;SDS011;61978;52.742;16.962;2022-12-29T12:50:25;7.12;;;2.15;;
73678;SDS011;61978;52.742;16.962;2022-12-29T12:53:00;4.40;;;1.95;;
73678;SDS011;61978;52.742;16.962;2022-12-29T13:01:30;5.47;;;2.33;;
73678;SDS011;61978;52.742;16.962;2022-12-29T13:14:51;4.60;;;2.20;;
73678;SDS011;61978;52.742;16.962;2022-12-29T13:17:23;7.08;;;2.60;;
73678;SDS011;61978;52.742;16.962;2022-12-29T13:22:57;4.62;;;2.17;;
73678;SDS011;61978;52.742;16.962;2022-12-29T13:28:15;4.53;;;2.17;;
73678;SDS011;61978;52.742;16.962;2022-12-29T13:36:29;3.90;;;2.02;;
73678;SDS011;61978;52.742;16.962;2022-12-29T13:39:13;7.12;;;1.95;;
73678;SDS011;61978;52.742;16.962;2022-12-29T13:44:14;3.98;;;2.42;;
73678;SDS011;61978;52.742;16.962;2022-12-29T13:46:42;5.03;;;2.33;;
73678;SDS011;61978;52.742;16.962;2022-12-29T13:49:18;5.45;;;2.47;;
73678;SDS011;61978;52.742;16.962;2022-12-29T13:51:47;4.67;;;2.47;;
73678;SDS011;61978;52.742;16.962;2022-12-29T13:54:22;3.65;;;2.30;;
73678;SDS011;61978;52.742;16.962;2022-12-29T13:59:50;5.67;;;2.58;;
73678;SDS011;61978;52.742;16.962;2022-12-29T14:05:15;7.17;;;3.25;;
73678;SDS011;61978;52.742;16.962;2022-12-29T14:07:38;7.37;;;3.40;;
73678;SDS011;61978;52.742;16.962;2022-12-29T14:10:18;6.22;;;3.40;;
73678;SDS011;61978;52.742;16.962;2022-12-29T14:12:58;3.72;;;2.50;;
73678;SDS011;61978;52.742;16.962;2022-12-29T14:15:32;4.35;;;2.52;;
73678;SDS011;61978;52.742;16.962;2022-12-29T14:21:04;5.87;;;2.50;;
73678;SDS011;61978;52.742;16.962;2022-12-29T14:23:26;4.53;;;2.77;;
73678;SDS011;61978;52.742;16.962;2022-12-29T14:28:31;5.17;;;2.80;;
73678;SDS011;61978;52.742;16.962;2022-12-29T14:31:02;5.25;;;2.50;;
73678;SDS011;61978;52.742;16.962;2022-12-29T14:33:32;4.20;;;2.40;;
73678;SDS011;61978;52.742;16.962;2022-12-29T14:38:47;8.30;;;2.75;;
73678;SDS011;61978;52.742;16.962;2022-12-29T14:49:28;18.30;;;12.55;;
73678;SDS011;61978;52.742;16.962;2022-12-29T14:52:04;6.15;;;2.92;;
73678;SDS011;61978;52.742;16.962;2022-12-29T14:57:05;7.85;;;3.27;;
73678;SDS011;61978;52.742;16.962;2022-12-29T14:59:34;4.17;;;2.47;;
73678;SDS011;61978;52.742;16.962;2022-12-29T15:02:03;6.37;;;3.62;;
73678;SDS011;61978;52.742;16.962;2022-12-29T15:04:33;5.97;;;2.65;;
73678;SDS011;61978;52.742;16.962;2022-12-29T15:07:02;7.75;;;3.58;;
73678;SDS011;61978;52.742;16.962;2022-12-29T15:09:35;4.87;;;3.10;;
73678;SDS011;61978;52.742;16.962;2022-12-29T15:14:59;12.82;;;3.75;;
73678;SDS011;61978;52.742;16.962;2022-12-29T15:17:27;8.48;;;3.40;;
73678;SDS011;61978;52.742;16.962;2022-12-29T15:20:00;6.33;;;3.47;;
73678;SDS011;61978;52.742;16.962;2022-12-29T15:22:28;6.17;;;3.47;;
73678;SDS011;61978;52.742;16.962;2022-12-29T15:24:59;5.87;;;3.42;;
73678;SDS011;61978;52.742;16.962;2022-12-29T15:27:28;10.40;;;3.37;;
73678;SDS011;61978;52.742;16.962;2022-12-29T15:29:57;8.58;;;3.77;;
73678;SDS011;61978;52.742;16.962;2022-12-29T15:32:28;5.80;;;3.70;;
73678;SDS011;61978;52.742;16.962;2022-12-29T15:34:58;5.72;;;3.30;;
73678;SDS011;61978;52.742;16.962;2022-12-29T15:37:32;6.85;;;3.62;;
73678;SDS011;61978;52.742;16.962;2022-12-29T15:40:04;6.20;;;3.77;;
73678;SDS011;61978;52.742;16.962;2022-12-29T15:45:30;4.17;;;3.05;;
73678;SDS011;61978;52.742;16.962;2022-12-29T15:47:59;6.92;;;3.33;;
73678;SDS011;61978;52.742;16.962;2022-12-29T15:50:28;6.47;;;4.35;;
73678;SDS011;61978;52.742;16.962;2022-12-29T15:52:57;6.22;;;3.60;;
73678;SDS011;61978;52.742;16.962;2022-12-29T15:55:37;6.10;;;3.65;;
73678;SDS011;61978;52.742;16.962;2022-12-29T15:58:03;6.28;;;3.27;;
73678;SDS011;61978;52.742;16.962;2022-12-29T16:00:36;6.05;;;3.22;;
73678;SDS011;61978;52.742;16.962;2022-12-29T16:03:04;6.37;;;3.50;;
73678;SDS011;61978;52.742;16.962;2022-12-29T16:05:34;8.10;;;3.95;;
73678;SDS011;61978;52.742;16.962;2022-12-29T16:08:03;6.85;;;3.70;;
73678;SDS011;61978;52.742;16.962;2022-12-29T16:10:39;9.50;;;3.83;;
73678;SDS011;61978;52.742;16.962;2022-12-29T16:13:31;5.60;;;3.40;;
73678;SDS011;61978;52.742;16.962;2022-12-29T16:18:43;8.67;;;3.87;;
73678;SDS011;61978;52.742;16.962;2022-12-29T16:21:32;9.10;;;3.90;;
73678;SDS011;61978;52.742;16.962;2022-12-29T16:23:59;6.28;;;3.58;;
73678;SDS011;61978;52.742;16.962;2022-12-29T16:28:58;6.17;;;3.37;;
73678;SDS011;61978;52.742;16.962;2022-12-29T16:31:47;8.78;;;3.83;;
73678;SDS011;61978;52.742;16.962;2022-12-29T16:39:36;7.40;;;3.95;;
73678;SDS011;61978;52.742;16.962;2022-12-29T16:45:24;6.73;;;3.30;;
73678;SDS011;61978;52.742;16.962;2022-12-29T16:47:49;6.53;;;4.12;;
73678;SDS011;61978;52.742;16.962;2022-12-29T16:50:34;5.05;;;3.75;;
73678;SDS011;61978;52.742;16.962;2022-12-29T16:53:04;6.50;;;4.08;;
73678;SDS011;61978;52.742;16.962;2022-12-29T16:55:33;6.72;;;3.92;;
73678;SDS011;61978;52.742;16.962;2022-12-29T16:58:01;11.70;;;4.17;;
73678;SDS011;61978;52.742;16.962;2022-12-29T17:00:34;8.85;;;4.17;;
73678;SDS011;61978;52.742;16.962;2022-12-29T17:03:02;6.85;;;3.90;;
73678;SDS011;61978;52.742;16.962;2022-12-29T17:05:31;5.62;;;4.28;;
73678;SDS011;61978;52.742;16.962;2022-12-29T17:08:12;9.03;;;4.10;;
73678;SDS011;61978;52.742;16.962;2022-12-29T17:10:53;7.60;;;4.03;;
73678;SDS011;61978;52.742;16.962;2022-12-29T17:13:43;7.97;;;4.10;;
73678;SDS011;61978;52.742;16.962;2022-12-29T17:16:11;7.55;;;3.92;;
73678;SDS011;61978;52.742;16.962;2022-12-29T17:18:38;11.70;;;6.10;;
73678;SDS011;61978;52.742;16.962;2022-12-29T17:21:06;18.42;;;8.45;;
73678;SDS011;61978;52.742;16.962;2022-12-29T17:23:33;7.12;;;4.30;;
73678;SDS011;61978;52.742;16.962;2022-12-29T17:26:01;8.65;;;3.55;;
73678;SDS011;61978;52.742;16.962;2022-12-29T17:28:29;8.40;;;3.83;;
73678;SDS011;61978;52.742;16.962;2022-12-29T17:31:02;8.60;;;4.12;;
73678;SDS011;61978;52.742;16.962;2022-12-29T17:33:37;8.70;;;4.10;;